createdAt,value
2024-03-12T00:01:09.853Z,100869.13
2024-03-12T00:03:43.660Z,100872.44
2024-03-12T00:06:11.518Z,100865.47
2024-03-12T00:08:41.566Z,100852.44
2024-03-12T00:11:10.541Z,100839.94
2024-03-12T00:13:38.167Z,100839.53
2024-03-12T00:16:06.830Z,100847.34
2024-03-12T00:18:35.163Z,100850.72
2024-03-12T00:21:02.911Z,100857.28
2024-03-12T00:23:31.090Z,100869.84
2024-03-12T00:25:59.976Z,100872.00
2024-03-12T00:28:27.584Z,100872.25
2024-03-12T00:30:56.164Z,100852.03
2024-03-12T00:33:23.793Z,100868.41
2024-03-12T00:35:52.367Z,100840.97
2024-03-12T00:38:20.228Z,100841.09
2024-03-12T00:40:49.115Z,100860.63
2024-03-12T00:43:18.842Z,100863.59
2024-03-12T00:45:47.387Z,100858.28
2024-03-12T00:48:15.478Z,100854.69
2024-03-12T00:50:46.391Z,100815.94
2024-03-12T00:53:15.248Z,100837.63
2024-03-12T00:55:43.718Z,100835.34
2024-03-12T00:58:13.497Z,100837.25
2024-03-12T01:00:43.086Z,100840.88
2024-03-12T01:03:12.839Z,100839.28
2024-03-12T01:05:40.932Z,100834.16
2024-03-12T01:08:10.189Z,100835.53
2024-03-12T01:10:38.231Z,100833.09
2024-03-12T01:13:10.217Z,100827.84
2024-03-12T01:15:38.482Z,100827.13
2024-03-12T01:18:09.536Z,100794.56
2024-03-12T01:20:37.847Z,100819.44
2024-03-12T01:23:07.506Z,100829.88
2024-03-12T01:25:36.958Z,100822.59
2024-03-12T01:28:07.262Z,100831.50
2024-03-12T01:30:36.576Z,100827.94
2024-03-12T01:33:06.660Z,100835.25
2024-03-12T01:35:39.704Z,100834.47
2024-03-12T01:38:09.795Z,100834.88
2024-03-12T01:40:37.510Z,100847.56
2024-03-12T01:43:07.780Z,100853.47
2024-03-12T01:45:36.159Z,100868.91
2024-03-12T01:48:08.066Z,100871.41
2024-03-12T01:50:38.700Z,100866.47
2024-03-12T01:53:07.477Z,100854.84
2024-03-12T01:55:38.680Z,100871.13
2024-03-12T01:58:06.665Z,100867.91
2024-03-12T02:00:35.128Z,100868.53
2024-03-12T02:03:03.372Z,100859.88
2024-03-12T02:05:31.017Z,100854.88
2024-03-12T02:08:00.245Z,100847.63
2024-03-12T02:10:27.897Z,100858.50
2024-03-12T02:12:55.584Z,100851.03
2024-03-12T02:15:23.415Z,100864.69
2024-03-12T02:17:52.924Z,100858.56
2024-03-12T02:20:22.766Z,100854.41
2024-03-12T02:22:54.289Z,100855.75
2024-03-12T02:25:24.287Z,100859.91
2024-03-12T02:27:52.542Z,100869.00
2024-03-12T02:30:20.704Z,100872.38
2024-03-12T02:32:49.406Z,100867.09
2024-03-12T02:35:18.033Z,100867.78
2024-03-12T02:37:46.642Z,100872.81
2024-03-12T02:40:15.759Z,100863.75
2024-03-12T02:42:46.433Z,100853.63
2024-03-12T02:45:16.327Z,100874.06
2024-03-12T02:47:45.757Z,100864.28
2024-03-12T02:50:13.670Z,100882.84
2024-03-12T02:52:42.910Z,100884.66
2024-03-12T02:55:10.803Z,100868.38
2024-03-12T02:57:38.714Z,100874.53
2024-03-12T03:00:12.686Z,100861.50
2024-03-12T03:02:40.966Z,100880.78
2024-03-12T03:05:11.025Z,100890.94
2024-03-12T03:07:38.946Z,100905.31
2024-03-12T03:10:07.403Z,100881.44
2024-03-12T03:12:35.147Z,100855.78
2024-03-12T03:15:02.850Z,100880.03
2024-03-12T03:17:31.729Z,100879.28
2024-03-12T03:19:59.279Z,100891.31
2024-03-12T03:22:26.823Z,100893.06
2024-03-12T03:24:54.795Z,100904.84
2024-03-12T03:27:22.353Z,100892.16
2024-03-12T03:29:49.917Z,100899.81
2024-03-12T03:32:17.536Z,100892.19
2024-03-12T03:34:46.436Z,100906.69
2024-03-12T03:37:15.088Z,100909.19
2024-03-12T03:39:42.753Z,100889.66
2024-03-12T03:42:10.418Z,100908.38
2024-03-12T03:44:38.020Z,100896.44
2024-03-12T03:47:06.494Z,100915.13
2024-03-12T03:49:34.111Z,100898.06
2024-03-12T03:52:03.144Z,100915.06
2024-03-12T03:54:30.801Z,100906.50
2024-03-12T03:56:58.375Z,100907.31
2024-03-12T03:59:26.805Z,100893.56
2024-03-12T04:01:56.349Z,100881.00
2024-03-12T04:04:24.074Z,100902.28
2024-03-12T04:06:54.978Z,100916.06
2024-03-12T04:09:26.775Z,100904.84
2024-03-12T04:11:54.649Z,100911.78
2024-03-12T04:14:22.257Z,100917.63
2024-03-12T04:16:49.776Z,100915.81
2024-03-12T04:19:17.791Z,100902.47
2024-03-12T04:21:45.892Z,100929.97
2024-03-12T04:24:14.890Z,100941.00
2024-03-12T04:26:46.414Z,100947.66
2024-03-12T04:29:14.065Z,100948.31
2024-03-12T04:31:41.723Z,100935.53
2024-03-12T04:34:10.294Z,100950.78
2024-03-12T04:36:38.342Z,100929.44
2024-03-12T04:39:31.324Z,100929.69
2024-03-12T04:42:06.197Z,100945.66
2024-03-12T04:44:34.723Z,100938.09
2024-03-12T04:47:02.941Z,100934.63
2024-03-12T04:49:31.068Z,100927.91
2024-03-12T04:51:58.802Z,100928.91
2024-03-12T04:54:26.898Z,100929.75
2024-03-12T04:56:54.501Z,100938.44
2024-03-12T04:59:23.389Z,100932.41
2024-03-12T05:01:51.126Z,100957.09
2024-03-12T05:04:23.076Z,100965.38
2024-03-12T05:06:51.715Z,100961.88
2024-03-12T05:09:19.696Z,100950.19
2024-03-12T05:11:48.763Z,100955.09
2024-03-12T05:14:16.501Z,100957.69
2024-03-12T05:16:45.432Z,100961.06
2024-03-12T05:19:13.300Z,100969.94
2024-03-12T05:21:41.235Z,100968.22
2024-03-12T05:24:08.889Z,100994.50
2024-03-12T05:26:44.988Z,100970.72
2024-03-12T05:29:12.781Z,100991.91
2024-03-12T05:31:40.418Z,100995.09
2024-03-12T05:34:17.171Z,101002.81
2024-03-12T05:36:49.411Z,100999.22
2024-03-12T05:39:27.706Z,100986.63
2024-03-12T05:42:09.508Z,101004.41
2024-03-12T05:44:55.368Z,100996.88
2024-03-12T05:47:44.270Z,101006.16
2024-03-12T05:50:18.209Z,101013.75
2024-03-12T05:52:47.283Z,101010.16
2024-03-12T05:55:16.517Z,100997.38
2024-03-12T05:57:45.797Z,100994.13
2024-03-12T06:00:15.303Z,101012.09
2024-03-12T06:02:43.149Z,101008.53
2024-03-12T06:05:13.785Z,100998.91
2024-03-12T06:07:43.530Z,101024.22
2024-03-12T06:10:12.377Z,101013.34
2024-03-12T06:12:40.137Z,101031.19
2024-03-12T06:15:08.652Z,101043.22
2024-03-12T06:17:37.886Z,101050.63
2024-03-12T06:20:10.131Z,101047.22
2024-03-12T06:22:39.128Z,101058.28
2024-03-12T06:25:10.405Z,101058.28
2024-03-12T06:27:40.075Z,101059.78
2024-03-12T06:30:09.362Z,101050.63
2024-03-12T06:32:36.971Z,101054.91
2024-03-12T06:35:05.087Z,101076.06
2024-03-12T06:37:32.669Z,101074.97
2024-03-12T06:40:00.546Z,101053.94
2024-03-12T06:42:30.998Z,101065.78
2024-03-12T06:45:01.647Z,101069.16
2024-03-12T06:47:30.180Z,101043.88
2024-03-12T06:49:59.775Z,101072.75
2024-03-12T06:52:27.799Z,101083.59
2024-03-12T06:54:55.485Z,101080.97
2024-03-12T06:57:23.499Z,101085.09
2024-03-12T06:59:52.675Z,101076.41
2024-03-12T07:02:20.249Z,101081.69
2024-03-12T07:04:49.706Z,101068.53
2024-03-12T07:07:20.254Z,101072.00
2024-03-12T07:09:48.199Z,101084.69
2024-03-12T07:12:17.428Z,101087.75
2024-03-12T07:14:46.940Z,101086.97
2024-03-12T07:17:17.090Z,101097.13
2024-03-12T07:19:44.820Z,101098.59
2024-03-12T07:22:12.823Z,101095.97
2024-03-12T07:24:40.816Z,101083.66
2024-03-12T07:27:10.291Z,101089.44
2024-03-12T07:29:38.356Z,101095.16
2024-03-12T07:32:06.655Z,101087.59
2024-03-12T07:34:37.654Z,101042.13
2024-03-12T07:37:06.061Z,101095.19
2024-03-12T07:39:35.708Z,101104.44
2024-03-12T07:42:09.819Z,101108.59
2024-03-12T07:44:38.423Z,101094.41
2024-03-12T07:47:06.312Z,101090.88
2024-03-12T07:49:37.634Z,101098.59
2024-03-12T07:52:06.750Z,101105.53
2024-03-12T07:54:35.173Z,101115.75
2024-03-12T07:57:03.161Z,101111.22
2024-03-12T07:59:31.484Z,101116.41
2024-03-12T08:01:59.927Z,101117.03
2024-03-12T08:04:28.080Z,101125.53
2024-03-12T08:06:57.870Z,101114.34
2024-03-12T08:09:25.463Z,101102.84
2024-03-12T08:11:53.274Z,101101.97
2024-03-12T08:14:20.877Z,101119.94
2024-03-12T08:16:50.325Z,101122.47
2024-03-12T08:19:18.480Z,101123.09
2024-03-12T08:21:46.201Z,101132.06
2024-03-12T08:24:15.741Z,101120.16
2024-03-12T08:26:43.732Z,101137.22
2024-03-12T08:29:12.938Z,101133.06
2024-03-12T08:31:47.494Z,101139.81
2024-03-12T08:34:19.419Z,101137.34
2024-03-12T08:36:48.202Z,101154.28
2024-03-12T08:39:17.222Z,101146.19
2024-03-12T08:41:45.281Z,101152.16
2024-03-12T08:44:15.303Z,101148.91
2024-03-12T08:46:42.973Z,101155.50
2024-03-12T08:49:12.235Z,101152.16
2024-03-12T08:51:41.589Z,101150.41
2024-03-12T08:54:10.051Z,101162.00
2024-03-12T08:56:40.375Z,101146.75
2024-03-12T08:59:10.001Z,101149.03
2024-03-12T09:01:38.023Z,101158.41
2024-03-12T09:04:08.761Z,101158.47
2024-03-12T09:06:36.676Z,101160.81
2024-03-12T09:09:06.014Z,101162.59
2024-03-12T09:11:34.359Z,101140.56
2024-03-12T09:14:03.354Z,101141.72
2024-03-12T09:16:31.111Z,101158.38
2024-03-12T09:18:58.729Z,101165.91
2024-03-12T09:21:26.855Z,101157.69
2024-03-12T09:24:01.014Z,101160.63
2024-03-12T09:26:30.754Z,101179.25
2024-03-12T09:28:58.722Z,101169.94
2024-03-12T09:31:28.551Z,101186.03
2024-03-12T09:33:56.632Z,101177.34
2024-03-12T09:36:25.673Z,101172.09
2024-03-12T09:38:54.613Z,101169.56
2024-03-12T09:41:25.741Z,101170.69
2024-03-12T09:43:54.803Z,101183.25
2024-03-12T09:46:23.738Z,101176.56
2024-03-12T09:48:53.746Z,101174.19
2024-03-12T09:51:22.686Z,101177.28
2024-03-12T09:53:52.247Z,101187.34
2024-03-12T09:56:21.791Z,101183.84
2024-03-12T09:58:49.932Z,101172.72
2024-03-12T10:01:17.903Z,101185.53
2024-03-12T10:03:47.409Z,101192.06
2024-03-12T10:06:17.815Z,101191.56
2024-03-12T10:08:46.164Z,101186.31
2024-03-12T10:11:20.906Z,101172.94
2024-03-12T10:13:55.154Z,101175.09
2024-03-12T10:16:25.912Z,101199.13
2024-03-12T10:19:08.094Z,101186.41
2024-03-12T10:21:37.554Z,101196.31
2024-03-12T10:24:15.972Z,101188.47
2024-03-12T10:26:45.459Z,101167.06
2024-03-12T10:29:14.707Z,101179.59
2024-03-12T10:31:45.109Z,101186.50
2024-03-12T10:34:14.822Z,101193.41
2024-03-12T10:36:44.992Z,101188.03
2024-03-12T10:39:14.496Z,101177.53
2024-03-12T10:41:44.302Z,101161.09
2024-03-12T10:44:13.171Z,101159.16
2024-03-12T10:46:42.433Z,101156.50
2024-03-12T10:49:11.384Z,101153.63
2024-03-12T10:51:42.401Z,101178.34
2024-03-12T10:54:15.032Z,101168.56
2024-03-12T10:56:43.551Z,101143.34
2024-03-12T10:59:12.219Z,101150.00
2024-03-12T11:01:41.794Z,101148.00
2024-03-12T11:04:11.382Z,101154.59
2024-03-12T11:06:40.654Z,101145.53
2024-03-12T11:09:09.604Z,101158.03
2024-03-12T11:11:39.673Z,101161.53
2024-03-12T11:14:08.782Z,101171.56
2024-03-12T11:16:37.707Z,101161.31
2024-03-12T11:19:22.156Z,101170.06
2024-03-12T11:21:51.000Z,101166.22
2024-03-12T11:24:28.917Z,101164.31
2024-03-12T11:27:00.920Z,101172.50
2024-03-12T11:30:15.794Z,101197.66
2024-03-12T11:32:44.979Z,101195.44
2024-03-12T11:35:37.162Z,101182.88
2024-03-12T11:38:10.624Z,101193.06
2024-03-12T11:40:49.089Z,101196.09
2024-03-12T11:46:10.227Z,101189.66
2024-03-12T11:48:39.898Z,101164.59
2024-03-12T11:51:13.103Z,101182.81
2024-03-12T11:53:42.584Z,101175.59
2024-03-12T11:56:20.172Z,101157.31
2024-03-12T11:58:57.725Z,101180.06
2024-03-12T12:01:34.985Z,101179.03
2024-03-12T12:04:04.640Z,101180.19
2024-03-12T12:06:33.599Z,101116.66
2024-03-12T12:09:06.362Z,101165.78
2024-03-12T12:11:35.756Z,101183.53
2024-03-12T12:14:05.553Z,101179.47
2024-03-12T12:16:34.581Z,101187.88
2024-03-12T12:19:07.617Z,101167.34
2024-03-12T12:21:36.052Z,101157.84
2024-03-12T12:24:04.880Z,101171.72
2024-03-12T12:26:34.763Z,101174.09
2024-03-12T12:29:04.740Z,101194.69
2024-03-12T12:31:36.980Z,101190.22
2024-03-12T12:34:07.701Z,101185.19
2024-03-12T12:36:39.648Z,101174.94
2024-03-12T12:41:43.541Z,101175.56
2024-03-12T12:44:16.423Z,101194.69
2024-03-12T12:46:46.592Z,101193.16
2024-03-12T12:49:15.841Z,101205.84
2024-03-12T12:51:43.793Z,101199.47
2024-03-12T12:54:11.543Z,101199.41
2024-03-12T12:56:43.080Z,101198.09
2024-03-12T12:59:11.143Z,101178.44
2024-03-12T13:01:39.858Z,101190.38
2024-03-12T13:04:23.276Z,101168.91
2024-03-12T13:06:52.509Z,101172.50
2024-03-12T13:09:33.095Z,101180.72
2024-03-12T13:12:01.706Z,101155.34
2024-03-12T13:14:29.625Z,101198.13
2024-03-12T13:16:59.708Z,101166.22
2024-03-12T13:19:29.323Z,101197.91
2024-03-12T13:21:59.109Z,101187.81
2024-03-12T13:24:26.804Z,101181.66
2024-03-12T13:26:54.364Z,101181.69
2024-03-12T13:29:22.176Z,101183.13
2024-03-12T13:31:49.945Z,101181.81
2024-03-12T13:34:17.601Z,101199.94
2024-03-12T13:36:48.857Z,101192.16
2024-03-12T13:39:16.882Z,101202.91
2024-03-12T13:41:44.911Z,101194.06
2024-03-12T13:44:12.849Z,101191.75
2024-03-12T13:46:44.063Z,101192.00
2024-03-12T13:49:14.252Z,101202.59
2024-03-12T13:51:44.642Z,101201.19
2024-03-12T13:54:13.738Z,101203.38
2024-03-12T13:56:41.503Z,101204.00
2024-03-12T13:59:09.263Z,101182.88
2024-03-12T14:01:38.035Z,101202.28
2024-03-12T14:04:07.374Z,101201.94
2024-03-12T14:06:35.849Z,101206.84
2024-03-12T14:09:05.943Z,101215.41
2024-03-12T14:11:34.989Z,101222.47
2024-03-12T14:14:03.618Z,101228.38
2024-03-12T14:16:31.266Z,101234.13
2024-03-12T14:18:59.138Z,101204.16
2024-03-12T14:21:27.858Z,101222.16
2024-03-12T14:23:56.425Z,101222.66
2024-03-12T14:26:25.394Z,101220.97
2024-03-12T14:28:55.220Z,101213.50
2024-03-12T14:31:23.033Z,101207.25
2024-03-12T14:33:50.727Z,101196.34
2024-03-12T14:36:18.494Z,101207.16
2024-03-12T14:38:47.009Z,101201.63
2024-03-12T14:41:15.634Z,101221.03
2024-03-12T14:43:43.189Z,101204.06
2024-03-12T14:46:13.426Z,101197.97
2024-03-12T14:48:41.147Z,101205.63
2024-03-12T14:51:08.712Z,101207.72
2024-03-12T14:53:36.424Z,101214.03
2024-03-12T14:56:05.173Z,101181.66
2024-03-12T14:58:33.148Z,101208.66
2024-03-12T15:01:00.943Z,101212.13
2024-03-12T15:03:30.377Z,101218.56
2024-03-12T15:05:58.546Z,101216.00
2024-03-12T15:08:26.163Z,101229.09
2024-03-12T15:14:34.447Z,101221.56
2024-03-12T15:17:02.113Z,101234.50
2024-03-12T15:19:31.187Z,101220.53
2024-03-12T15:22:00.548Z,101239.97
2024-03-12T15:24:28.247Z,101218.28
2024-03-12T15:26:58.675Z,101226.75
2024-03-12T15:29:29.232Z,101218.03
2024-03-12T15:31:57.113Z,101229.44
2024-03-12T15:34:24.745Z,101225.75
2024-03-12T15:36:53.940Z,101239.31
2024-03-12T15:39:23.776Z,101218.88
2024-03-12T15:41:51.526Z,101238.66
2024-03-12T15:44:19.804Z,101255.53
2024-03-12T15:46:48.722Z,101242.09
2024-03-12T15:49:17.819Z,101256.38
2024-03-12T15:51:46.239Z,101251.84
2024-03-12T15:54:15.954Z,101243.47
2024-03-12T15:56:45.298Z,101247.34
2024-03-12T15:59:15.401Z,101243.22
2024-03-12T16:01:45.209Z,101259.78
2024-03-12T16:04:14.382Z,101243.19
2024-03-12T16:06:43.086Z,101267.69
2024-03-12T16:09:11.401Z,101259.38
2024-03-12T16:11:40.737Z,101243.06
2024-03-12T16:14:11.568Z,101264.66
2024-03-12T16:16:39.297Z,101247.72
2024-03-12T16:19:08.186Z,101270.72
2024-03-12T16:21:36.063Z,101272.59
2024-03-12T16:24:05.617Z,101267.84
2024-03-12T16:26:33.266Z,101268.97
2024-03-12T16:29:02.217Z,101266.34
2024-03-12T16:31:29.852Z,101282.25
2024-03-12T16:33:57.451Z,101281.88
2024-03-12T16:36:26.006Z,101295.94
2024-03-12T16:38:53.809Z,101299.28
2024-03-12T16:41:21.357Z,101299.78
2024-03-12T16:43:49.922Z,101287.53
2024-03-12T16:46:19.428Z,101300.34
2024-03-12T16:48:47.537Z,101299.19
2024-03-12T16:51:16.204Z,101288.00
2024-03-12T16:53:43.961Z,101299.13
2024-03-12T16:56:24.919Z,101311.94
2024-03-12T16:58:53.920Z,101316.28
2024-03-12T17:01:23.562Z,101310.78
2024-03-12T17:03:52.365Z,101291.72
2024-03-12T17:06:21.564Z,101290.78
2024-03-12T17:08:49.849Z,101317.19
2024-03-12T17:11:17.813Z,101320.41
2024-03-12T17:13:45.772Z,101326.47
2024-03-12T17:16:15.953Z,101329.91
2024-03-12T17:18:45.059Z,101332.88
2024-03-12T17:21:13.203Z,101337.78
2024-03-12T17:23:43.760Z,101333.09
2024-03-12T17:26:15.975Z,101348.13
2024-03-12T17:28:44.107Z,101347.47
2024-03-12T17:31:12.258Z,101337.78
2024-03-12T17:33:40.550Z,101352.34
2024-03-12T17:36:12.782Z,101336.84
2024-03-12T17:38:40.978Z,101335.50
2024-03-12T17:41:09.421Z,101362.25
2024-03-12T17:43:37.774Z,101361.34
2024-03-12T17:46:07.197Z,101355.34
2024-03-12T17:48:37.809Z,101348.09
2024-03-12T17:51:05.897Z,101364.09
2024-03-12T17:53:38.329Z,101363.00
2024-03-12T17:56:11.452Z,101381.16
2024-03-12T17:58:39.882Z,101365.97
2024-03-12T18:01:10.354Z,101361.22
2024-03-12T18:03:39.035Z,101370.22
2024-03-12T18:06:08.033Z,101372.03
2024-03-12T18:08:40.636Z,101372.59
2024-03-12T18:11:12.636Z,101374.38
2024-03-12T18:13:41.036Z,101378.78
2024-03-12T18:16:08.668Z,101362.81
2024-03-12T18:18:36.447Z,101370.38
2024-03-12T18:21:05.126Z,101378.78
2024-03-12T18:23:32.801Z,101384.31
2024-03-12T18:26:01.779Z,101388.66
2024-03-12T18:28:29.659Z,101375.28
2024-03-12T18:30:58.100Z,101387.44
2024-03-12T18:33:27.444Z,101396.22
2024-03-12T18:35:56.282Z,101386.78
2024-03-12T18:38:25.774Z,101388.06
2024-03-12T18:40:53.413Z,101395.09
2024-03-12T18:43:22.806Z,101395.22
2024-03-12T18:45:51.417Z,101418.78
2024-03-12T18:48:19.468Z,101416.78
2024-03-12T18:50:47.386Z,101426.63
2024-03-12T18:53:15.448Z,101389.63
2024-03-12T18:55:43.499Z,101410.09
2024-03-12T18:58:11.696Z,101395.13
2024-03-12T19:00:41.928Z,101405.69
2024-03-12T19:03:15.396Z,101428.22
2024-03-12T19:05:43.572Z,101439.09
2024-03-12T19:08:12.311Z,101418.84
2024-03-12T19:10:40.291Z,101432.41
2024-03-12T19:13:11.037Z,101407.22
2024-03-12T19:15:44.151Z,101429.13
2024-03-12T19:18:18.346Z,101423.63
2024-03-12T19:20:46.471Z,101417.44
2024-03-12T19:23:14.474Z,101434.75
2024-03-12T19:25:42.396Z,101421.09
2024-03-12T19:28:10.109Z,101434.00
2024-03-12T19:30:38.162Z,101409.38
2024-03-12T19:33:09.587Z,101403.47
2024-03-12T19:35:37.689Z,101432.69
2024-03-12T19:38:06.749Z,101418.44
2024-03-12T19:40:35.258Z,101433.06
2024-03-12T19:43:04.136Z,101445.59
2024-03-12T19:45:32.190Z,101443.78
2024-03-12T19:48:01.515Z,101443.22
2024-03-12T19:50:31.643Z,101439.81
2024-03-12T19:52:59.531Z,101438.47
2024-03-12T19:55:30.461Z,101418.13
2024-03-12T19:58:00.088Z,101431.16
2024-03-12T20:04:15.219Z,101440.66
2024-03-12T20:06:45.318Z,101441.38
2024-03-12T20:09:23.340Z,101431.00
2024-03-12T20:11:52.418Z,101447.13
2024-03-12T20:14:24.776Z,101447.09
2024-03-12T20:16:52.596Z,101415.03
2024-03-12T20:19:20.324Z,101426.97
2024-03-12T20:21:50.126Z,101427.75
2024-03-12T20:24:19.742Z,101426.13
2024-03-12T20:26:47.720Z,101429.34
2024-03-12T20:29:15.624Z,101440.63
2024-03-12T20:31:43.533Z,101418.56
2024-03-12T20:34:12.962Z,101430.59
2024-03-12T20:36:46.154Z,101424.66
2024-03-12T20:39:16.376Z,101430.44
2024-03-12T20:41:43.208Z,101429.53
2024-03-12T20:44:10.849Z,101401.06
2024-03-12T20:46:38.552Z,101428.41
2024-03-12T20:49:06.593Z,101441.78
2024-03-12T20:51:34.163Z,101430.44
2024-03-12T20:54:04.157Z,101432.13
2024-03-12T20:56:33.555Z,101397.34
2024-03-12T20:59:01.757Z,101430.34
2024-03-12T21:01:29.466Z,101415.72
2024-03-12T21:03:57.071Z,101396.38
2024-03-12T21:06:25.668Z,101425.97
2024-03-12T21:08:53.337Z,101426.63
2024-03-12T21:11:22.082Z,101424.63
2024-03-12T21:13:52.346Z,101421.09
2024-03-12T21:16:19.942Z,101415.22
2024-03-12T21:18:48.688Z,101421.22
2024-03-12T21:21:17.511Z,101404.25
2024-03-12T21:23:46.759Z,101411.84
2024-03-12T21:26:20.642Z,101396.47
2024-03-12T21:28:48.277Z,101408.78
2024-03-12T21:31:17.383Z,101414.00
2024-03-12T21:33:45.142Z,101420.53
2024-03-12T21:36:15.806Z,101402.09
2024-03-12T21:38:43.923Z,101397.19
2024-03-12T21:41:14.045Z,101393.16
2024-03-12T21:43:41.619Z,101393.44
2024-03-12T21:46:09.202Z,101406.13
2024-03-12T21:48:38.126Z,101406.06
2024-03-12T21:51:06.549Z,101419.28
2024-03-12T21:53:34.148Z,101417.50
2024-03-12T21:56:02.299Z,101419.25
2024-03-12T21:58:30.929Z,101390.06
2024-03-12T22:00:59.735Z,101411.41
2024-03-12T22:03:27.430Z,101411.16
2024-03-12T22:05:56.553Z,101418.91
2024-03-12T22:08:24.668Z,101424.78
2024-03-12T22:10:52.217Z,101429.69
2024-03-12T22:13:28.101Z,101418.53
2024-03-12T22:15:59.485Z,101417.13
2024-03-12T22:18:27.163Z,101435.03
2024-03-12T22:20:56.209Z,101422.47
2024-03-12T22:23:29.012Z,101441.78
2024-03-12T22:25:57.209Z,101438.13
2024-03-12T22:28:24.991Z,101437.53
2024-03-12T22:30:53.503Z,101417.13
2024-03-12T22:33:21.297Z,101400.34
2024-03-12T22:35:48.883Z,101423.38
2024-03-12T22:38:19.380Z,101419.09
2024-03-12T22:40:47.983Z,101330.75
2024-03-12T22:43:16.168Z,101409.63
2024-03-12T22:45:45.632Z,101413.69
2024-03-12T22:48:13.878Z,101403.72
2024-03-12T22:50:42.517Z,101408.88
2024-03-12T22:53:10.493Z,101408.81
2024-03-12T22:55:40.128Z,101404.44
2024-03-12T22:58:09.249Z,101413.84
2024-03-12T23:00:47.501Z,101411.31
2024-03-12T23:03:15.460Z,101407.16
2024-03-12T23:05:43.766Z,101380.66
2024-03-12T23:08:13.681Z,101390.41
2024-03-12T23:10:45.011Z,101390.81
2024-03-12T23:13:14.838Z,101402.06
2024-03-12T23:15:43.843Z,101400.41
2024-03-12T23:18:12.919Z,101408.81
2024-03-12T23:20:41.912Z,101381.56
2024-03-12T23:23:09.862Z,101404.75
2024-03-12T23:25:38.143Z,101394.63
2024-03-12T23:28:07.380Z,101344.88
2024-03-12T23:30:35.001Z,101404.28
2024-03-12T23:33:03.142Z,101412.72
2024-03-12T23:35:30.924Z,101418.78
2024-03-12T23:37:58.971Z,101424.00
2024-03-12T23:40:26.910Z,101430.88
2024-03-12T23:42:55.051Z,101413.09
2024-03-12T23:45:24.757Z,101413.84
2024-03-12T23:47:52.755Z,101421.66
2024-03-12T23:50:20.792Z,101414.81
2024-03-12T23:52:49.696Z,101419.19
2024-03-12T23:55:17.699Z,101416.66
2024-03-12T23:57:45.563Z,101416.66
